sensor_id;sensor_type;location;lat;lon;timestamp;pressure;altitude;pressure_sealevel;temperature;humidity
77003;BME280;65939;50.060;14.288;2022-12-18T00:01:57;98593.72;;;-6.12;74.97
77003;BME280;65939;50.060;14.288;2022-12-18T00:04:01;98600.50;;;-6.13;75.38
77003;BME280;65939;50.060;14.288;2022-12-18T00:06:06;98592.03;;;-6.10;75.51
77003;BME280;65939;50.060;14.288;2022-12-18T00:08:06;98597.06;;;-6.07;75.84
77003;BME280;65939;50.060;14.288;2022-12-18T00:10:07;98596.19;;;-6.06;76.48
77003;BME280;65939;50.060;14.288;2022-12-18T00:12:08;98597.03;;;-6.04;76.27
77003;BME280;65939;50.060;14.288;2022-12-18T00:14:11;98597.81;;;-6.02;76.19
77003;BME280;65939;50.060;14.288;2022-12-18T00:16:15;98599.50;;;-5.99;75.88
77003;BME280;65939;50.060;14.288;2022-12-18T00:18:15;98601.13;;;-5.94;76.34
77003;BME280;65939;50.060;14.288;2022-12-18T00:20:16;98599.28;;;-5.86;76.52
77003;BME280;65939;50.060;14.288;2022-12-18T00:22:21;98605.06;;;-5.78;76.78
77003;BME280;65939;50.060;14.288;2022-12-18T00:24:22;98603.25;;;-5.68;76.64
77003;BME280;65939;50.060;14.288;2022-12-18T00:26:26;98613.25;;;-5.59;77.20
77003;BME280;65939;50.060;14.288;2022-12-18T00:28:27;98624.94;;;-5.45;78.30
77003;BME280;65939;50.060;14.288;2022-12-18T00:30:28;98628.94;;;-5.31;78.27
77003;BME280;65939;50.060;14.288;2022-12-18T00:32:28;98637.19;;;-5.16;79.46
77003;BME280;65939;50.060;14.288;2022-12-18T00:34:29;98627.66;;;-5.03;79.04
77003;BME280;65939;50.060;14.288;2022-12-18T00:36:32;98630.84;;;-4.91;79.44
77003;BME280;65939;50.060;14.288;2022-12-18T00:38:34;98639.13;;;-4.79;79.42
77003;BME280;65939;50.060;14.288;2022-12-18T00:40:34;98631.28;;;-4.70;79.32
77003;BME280;65939;50.060;14.288;2022-12-18T00:42:35;98632.00;;;-4.62;79.04
77003;BME280;65939;50.060;14.288;2022-12-18T00:44:54;98636.09;;;-4.53;79.18
77003;BME280;65939;50.060;14.288;2022-12-18T00:46:54;98637.59;;;-4.45;78.82
77003;BME280;65939;50.060;14.288;2022-12-18T00:48:55;98640.88;;;-4.37;78.96
77003;BME280;65939;50.060;14.288;2022-12-18T00:50:55;98640.66;;;-4.27;79.23
77003;BME280;65939;50.060;14.288;2022-12-18T00:52:56;98642.25;;;-4.22;78.81
77003;BME280;65939;50.060;14.288;2022-12-18T00:54:56;98640.44;;;-4.15;79.02
77003;BME280;65939;50.060;14.288;2022-12-18T00:56:57;98642.81;;;-4.07;79.19
77003;BME280;65939;50.060;14.288;2022-12-18T00:58:57;98648.63;;;-4.01;78.86
77003;BME280;65939;50.060;14.288;2022-12-18T01:00:58;98651.06;;;-3.95;79.00
77003;BME280;65939;50.060;14.288;2022-12-18T01:02:59;98654.31;;;-3.88;78.81
77003;BME280;65939;50.060;14.288;2022-12-18T01:04:59;98643.97;;;-3.80;78.92
77003;BME280;65939;50.060;14.288;2022-12-18T01:07:00;98646.28;;;-3.71;79.28
77003;BME280;65939;50.060;14.288;2022-12-18T01:09:01;98644.44;;;-3.65;78.51
77003;BME280;65939;50.060;14.288;2022-12-18T01:11:08;98646.81;;;-3.57;78.73
77003;BME280;65939;50.060;14.288;2022-12-18T01:13:10;98646.69;;;-3.51;78.30
77003;BME280;65939;50.060;14.288;2022-12-18T01:15:12;98653.34;;;-3.45;78.30
77003;BME280;65939;50.060;14.288;2022-12-18T01:17:13;98656.66;;;-3.40;78.47
77003;BME280;65939;50.060;14.288;2022-12-18T01:19:14;98657.38;;;-3.35;77.87
77003;BME280;65939;50.060;14.288;2022-12-18T01:21:16;98655.59;;;-3.31;77.68
77003;BME280;65939;50.060;14.288;2022-12-18T01:23:17;98662.28;;;-3.27;77.39
77003;BME280;65939;50.060;14.288;2022-12-18T01:25:17;98673.25;;;-3.22;77.08
77003;BME280;65939;50.060;14.288;2022-12-18T01:27:18;98666.38;;;-3.20;77.51
77003;BME280;65939;50.060;14.288;2022-12-18T01:29:18;98668.03;;;-3.18;77.08
77003;BME280;65939;50.060;14.288;2022-12-18T01:31:25;98666.25;;;-3.14;77.21
77003;BME280;65939;50.060;14.288;2022-12-18T01:33:26;98670.41;;;-3.10;76.83
77003;BME280;65939;50.060;14.288;2022-12-18T01:35:27;98672.09;;;-3.09;76.57
77003;BME280;65939;50.060;14.288;2022-12-18T01:37:27;98668.59;;;-3.06;76.58
77003;BME280;65939;50.060;14.288;2022-12-18T01:39:28;98664.25;;;-3.03;76.41
77003;BME280;65939;50.060;14.288;2022-12-18T01:41:30;98669.34;;;-3.01;76.50
77003;BME280;65939;50.060;14.288;2022-12-18T01:43:54;98669.28;;;-3.00;76.86
77003;BME280;65939;50.060;14.288;2022-12-18T01:45:59;98667.63;;;-3.01;76.47
77003;BME280;65939;50.060;14.288;2022-12-18T01:48:06;98669.22;;;-2.97;76.79
77003;BME280;65939;50.060;14.288;2022-12-18T01:52:13;98676.69;;;-2.87;76.11
77003;BME280;65939;50.060;14.288;2022-12-18T01:54:13;98680.91;;;-2.86;76.36
77003;BME280;65939;50.060;14.288;2022-12-18T01:56:16;98668.06;;;-2.83;76.10
77003;BME280;65939;50.060;14.288;2022-12-18T01:58:23;98668.81;;;-2.80;75.78
77003;BME280;65939;50.060;14.288;2022-12-18T02:00:27;98672.13;;;-2.76;75.81
77003;BME280;65939;50.060;14.288;2022-12-18T02:02:29;98671.25;;;-2.75;76.00
77003;BME280;65939;50.060;14.288;2022-12-18T02:04:30;98666.06;;;-2.72;75.70
77003;BME280;65939;50.060;14.288;2022-12-18T02:06:39;98666.06;;;-2.72;75.36
77003;BME280;65939;50.060;14.288;2022-12-18T02:13:42;98686.34;;;-2.66;75.32
77003;BME280;65939;50.060;14.288;2022-12-18T02:16:06;98688.03;;;-2.65;75.23
77003;BME280;65939;50.060;14.288;2022-12-18T02:18:18;98692.19;;;-2.61;75.11
77003;BME280;65939;50.060;14.288;2022-12-18T02:25:15;98709.03;;;-2.54;74.95
77003;BME280;65939;50.060;14.288;2022-12-18T02:27:20;98704.75;;;-2.53;74.93
77003;BME280;65939;50.060;14.288;2022-12-18T02:29:25;98702.19;;;-2.52;74.80
77003;BME280;65939;50.060;14.288;2022-12-18T02:31:36;98701.28;;;-2.51;74.70
77003;BME280;65939;50.060;14.288;2022-12-18T02:33:42;98702.19;;;-2.52;74.69
77003;BME280;65939;50.060;14.288;2022-12-18T02:35:45;98709.84;;;-2.52;74.76
77003;BME280;65939;50.060;14.288;2022-12-18T02:37:48;98701.28;;;-2.51;74.29
77003;BME280;65939;50.060;14.288;2022-12-18T02:39:51;98697.00;;;-2.50;74.50
77003;BME280;65939;50.060;14.288;2022-12-18T02:41:53;98695.28;;;-2.48;74.51
77003;BME280;65939;50.060;14.288;2022-12-18T02:44:00;98698.66;;;-2.48;74.41
77003;BME280;65939;50.060;14.288;2022-12-18T02:46:32;98702.94;;;-2.48;74.19
77003;BME280;65939;50.060;14.288;2022-12-18T02:48:35;98703.72;;;-2.46;73.79
77003;BME280;65939;50.060;14.288;2022-12-18T02:50:44;98704.56;;;-2.46;73.78
77003;BME280;65939;50.060;14.288;2022-12-18T02:57:54;98697.69;;;-2.44;73.98
77003;BME280;65939;50.060;14.288;2022-12-18T03:00:06;98713.84;;;-2.42;73.86
77003;BME280;65939;50.060;14.288;2022-12-18T03:04:22;98710.34;;;-2.39;74.01
77003;BME280;65939;50.060;14.288;2022-12-18T03:06:35;98704.38;;;-2.38;73.93
77003;BME280;65939;50.060;14.288;2022-12-18T03:08:42;98712.91;;;-2.39;73.80
77003;BME280;65939;50.060;14.288;2022-12-18T03:11:00;98707.78;;;-2.37;73.72
77003;BME280;65939;50.060;14.288;2022-12-18T03:13:13;98709.50;;;-2.39;73.31
77003;BME280;65939;50.060;14.288;2022-12-18T03:15:33;98714.63;;;-2.39;73.83
77003;BME280;65939;50.060;14.288;2022-12-18T03:17:38;98713.75;;;-2.38;73.57
77003;BME280;65939;50.060;14.288;2022-12-18T03:19:43;98712.88;;;-2.37;73.46
77003;BME280;65939;50.060;14.288;2022-12-18T03:21:54;98707.78;;;-2.37;73.77
77003;BME280;65939;50.060;14.288;2022-12-18T03:23:56;98716.28;;;-2.38;73.47
77003;BME280;65939;50.060;14.288;2022-12-18T03:26:01;98717.25;;;-2.41;73.30
77003;BME280;65939;50.060;14.288;2022-12-18T03:28:09;98723.19;;;-2.41;73.50
77003;BME280;65939;50.060;14.288;2022-12-18T03:30:13;98722.38;;;-2.43;73.25
77003;BME280;65939;50.060;14.288;2022-12-18T03:32:42;98726.63;;;-2.42;73.40
77003;BME280;65939;50.060;14.288;2022-12-18T03:34:48;98722.34;;;-2.41;73.15
77003;BME280;65939;50.060;14.288;2022-12-18T03:36:51;98730.84;;;-2.41;73.43
77003;BME280;65939;50.060;14.288;2022-12-18T03:38:51;98726.53;;;-2.38;73.44
77003;BME280;65939;50.060;14.288;2022-12-18T03:41:15;98725.69;;;-2.39;73.23
77003;BME280;65939;50.060;14.288;2022-12-18T03:45:42;98734.31;;;-2.43;73.26
77003;BME280;65939;50.060;14.288;2022-12-18T03:48:07;98732.59;;;-2.41;73.41
77003;BME280;65939;50.060;14.288;2022-12-18T03:50:22;98730.84;;;-2.41;73.26
77003;BME280;65939;50.060;14.288;2022-12-18T03:52:33;98730.03;;;-2.41;72.94
77003;BME280;65939;50.060;14.288;2022-12-18T03:54:38;98741.97;;;-2.42;73.00
77003;BME280;65939;50.060;14.288;2022-12-18T03:56:46;98741.09;;;-2.41;73.03
77003;BME280;65939;50.060;14.288;2022-12-18T03:58:50;98736.88;;;-2.42;73.21
77003;BME280;65939;50.060;14.288;2022-12-18T04:00:56;98737.69;;;-2.41;73.00
77003;BME280;65939;50.060;14.288;2022-12-18T04:03:01;98737.69;;;-2.41;72.67
77003;BME280;65939;50.060;14.288;2022-12-18T04:05:08;98736.06;;;-2.44;72.65
77003;BME280;65939;50.060;14.288;2022-12-18T04:07:10;98741.16;;;-2.44;72.68
77003;BME280;65939;50.060;14.288;2022-12-18T04:09:12;98742.06;;;-2.45;72.39
77003;BME280;65939;50.060;14.288;2022-12-18T04:11:13;98736.13;;;-2.47;72.56
77003;BME280;65939;50.060;14.288;2022-12-18T04:13:22;98731.97;;;-2.51;72.61
77003;BME280;65939;50.060;14.288;2022-12-18T04:15:23;98743.94;;;-2.53;72.45
77003;BME280;65939;50.060;14.288;2022-12-18T04:17:23;98742.28;;;-2.54;72.34
77003;BME280;65939;50.060;14.288;2022-12-18T04:19:24;98737.16;;;-2.54;72.35
77003;BME280;65939;50.060;14.288;2022-12-18T04:21:25;98751.72;;;-2.56;72.28
77003;BME280;65939;50.060;14.288;2022-12-18T04:23:25;98757.69;;;-2.57;72.21
77003;BME280;65939;50.060;14.288;2022-12-18T04:25:26;98767.06;;;-2.57;72.48
77003;BME280;65939;50.060;14.288;2022-12-18T04:27:26;98762.00;;;-2.59;72.61
77003;BME280;65939;50.060;14.288;2022-12-18T04:29:27;98771.41;;;-2.61;72.67
77003;BME280;65939;50.060;14.288;2022-12-18T04:31:27;98765.47;;;-2.61;72.45
77003;BME280;65939;50.060;14.288;2022-12-18T04:33:28;98759.53;;;-2.62;72.63
77003;BME280;65939;50.060;14.288;2022-12-18T04:35:28;98764.63;;;-2.62;72.67
77003;BME280;65939;50.060;14.288;2022-12-18T04:37:29;98759.47;;;-2.60;72.82
77003;BME280;65939;50.060;14.288;2022-12-18T04:39:30;98762.88;;;-2.60;72.62
77003;BME280;65939;50.060;14.288;2022-12-18T04:41:30;98761.25;;;-2.64;72.70
77003;BME280;65939;50.060;14.288;2022-12-18T04:43:31;98767.31;;;-2.67;72.67
77003;BME280;65939;50.060;14.288;2022-12-18T04:45:33;98768.22;;;-2.69;72.73
77003;BME280;65939;50.060;14.288;2022-12-18T04:47:34;98774.22;;;-2.70;72.22
77003;BME280;65939;50.060;14.288;2022-12-18T04:49:34;98773.41;;;-2.72;72.53
77003;BME280;65939;50.060;14.288;2022-12-18T04:51:35;98768.34;;;-2.75;72.22
77003;BME280;65939;50.060;14.288;2022-12-18T04:53:35;98765.88;;;-2.78;72.16
77003;BME280;65939;50.060;14.288;2022-12-18T04:55:36;98761.72;;;-2.82;71.87
77003;BME280;65939;50.060;14.288;2022-12-18T04:57:36;98761.78;;;-2.85;72.26
77003;BME280;65939;50.060;14.288;2022-12-18T04:59:37;98766.94;;;-2.87;71.59
77003;BME280;65939;50.060;14.288;2022-12-18T05:01:37;98772.94;;;-2.88;72.31
77003;BME280;65939;50.060;14.288;2022-12-18T05:03:38;98779.78;;;-2.90;71.99
77003;BME280;65939;50.060;14.288;2022-12-18T05:05:39;98787.44;;;-2.90;71.90
77003;BME280;65939;50.060;14.288;2022-12-18T05:07:39;98783.22;;;-2.91;72.03
77003;BME280;65939;50.060;14.288;2022-12-18T05:09:40;98775.50;;;-2.90;71.95
77003;BME280;65939;50.060;14.288;2022-12-18T05:11:41;98772.97;;;-2.90;72.08
77003;BME280;65939;50.060;14.288;2022-12-18T05:13:43;98784.06;;;-2.91;71.87
77003;BME280;65939;50.060;14.288;2022-12-18T05:15:51;98785.72;;;-2.90;72.08
77003;BME280;65939;50.060;14.288;2022-12-18T05:17:52;98795.94;;;-2.88;71.80
77003;BME280;65939;50.060;14.288;2022-12-18T05:19:53;98793.38;;;-2.88;72.19
77003;BME280;65939;50.060;14.288;2022-12-18T05:21:53;98789.09;;;-2.87;71.58
77003;BME280;65939;50.060;14.288;2022-12-18T05:23:54;98792.50;;;-2.89;71.79
77003;BME280;65939;50.060;14.288;2022-12-18T05:25:57;98801.03;;;-2.88;72.08
77003;BME280;65939;50.060;14.288;2022-12-18T05:27:58;98803.59;;;-2.88;71.66
77003;BME280;65939;50.060;14.288;2022-12-18T05:29:59;98800.16;;;-2.87;71.93
77003;BME280;65939;50.060;14.288;2022-12-18T05:31:59;98796.78;;;-2.87;72.03
77003;BME280;65939;50.060;14.288;2022-12-18T05:34:00;98801.00;;;-2.86;71.95
77003;BME280;65939;50.060;14.288;2022-12-18T05:36:03;98794.22;;;-2.87;72.01
77003;BME280;65939;50.060;14.288;2022-12-18T05:38:04;98801.03;;;-2.88;72.12
77003;BME280;65939;50.060;14.288;2022-12-18T05:40:05;98795.94;;;-2.90;71.45
77003;BME280;65939;50.060;14.288;2022-12-18T05:42:06;98795.94;;;-2.90;71.82
77003;BME280;65939;50.060;14.288;2022-12-18T05:44:07;98793.41;;;-2.90;71.75
77003;BME280;65939;50.060;14.288;2022-12-18T05:46:12;98813.81;;;-2.88;71.95
77003;BME280;65939;50.060;14.288;2022-12-18T05:48:13;98810.44;;;-2.90;71.68
77003;BME280;65939;50.060;14.288;2022-12-18T05:50:14;98812.16;;;-2.91;72.11
77003;BME280;65939;50.060;14.288;2022-12-18T05:52:15;98812.16;;;-2.91;71.92
77003;BME280;65939;50.060;14.288;2022-12-18T05:54:16;98814.72;;;-2.91;71.68
77003;BME280;65939;50.060;14.288;2022-12-18T05:56:21;98813.06;;;-2.92;71.60
77003;BME280;65939;50.060;14.288;2022-12-18T05:58:22;98813.13;;;-2.95;71.74
77003;BME280;65939;50.060;14.288;2022-12-18T06:00:22;98815.69;;;-2.96;71.76
77003;BME280;65939;50.060;14.288;2022-12-18T06:02:23;98826.84;;;-2.99;71.33
77003;BME280;65939;50.060;14.288;2022-12-18T06:04:23;98833.69;;;-3.01;71.42
77003;BME280;65939;50.060;14.288;2022-12-18T06:06:26;98832.84;;;-3.03;71.19
77003;BME280;65939;50.060;14.288;2022-12-18T06:08:27;98832.91;;;-3.04;71.43
77003;BME280;65939;50.060;14.288;2022-12-18T06:10:27;98834.59;;;-3.03;71.82
77003;BME280;65939;50.060;14.288;2022-12-18T06:12:28;98843.13;;;-3.04;71.36
77003;BME280;65939;50.060;14.288;2022-12-18T06:14:28;98841.44;;;-3.05;71.46
77003;BME280;65939;50.060;14.288;2022-12-18T06:16:30;98845.75;;;-3.07;71.64
77003;BME280;65939;50.060;14.288;2022-12-18T06:18:31;98844.91;;;-3.08;71.15
77003;BME280;65939;50.060;14.288;2022-12-18T06:20:32;98840.75;;;-3.12;71.41
77003;BME280;65939;50.060;14.288;2022-12-18T06:22:32;98841.63;;;-3.13;71.69
77003;BME280;65939;50.060;14.288;2022-12-18T06:24:33;98846.69;;;-3.11;71.54
77003;BME280;65939;50.060;14.288;2022-12-18T06:26:37;98845.03;;;-3.14;71.58
77003;BME280;65939;50.060;14.288;2022-12-18T06:28:38;98850.13;;;-3.14;71.72
77003;BME280;65939;50.060;14.288;2022-12-18T06:30:38;98856.19;;;-3.18;72.16
77003;BME280;65939;50.060;14.288;2022-12-18T06:32:39;98856.31;;;-3.24;72.36
77003;BME280;65939;50.060;14.288;2022-12-18T06:34:39;98856.34;;;-3.27;72.27
77003;BME280;65939;50.060;14.288;2022-12-18T06:36:40;98865.75;;;-3.28;72.39
77003;BME280;65939;50.060;14.288;2022-12-18T06:38:42;98862.34;;;-3.27;72.62
77003;BME280;65939;50.060;14.288;2022-12-18T06:40:43;98861.47;;;-3.26;72.17
77003;BME280;65939;50.060;14.288;2022-12-18T06:42:44;98867.41;;;-3.25;72.16
77003;BME280;65939;50.060;14.288;2022-12-18T06:44:44;98875.06;;;-3.25;72.16
77003;BME280;65939;50.060;14.288;2022-12-18T06:46:45;98875.94;;;-3.26;72.20
77003;BME280;65939;50.060;14.288;2022-12-18T06:48:49;98881.84;;;-3.24;72.05
77003;BME280;65939;50.060;14.288;2022-12-18T06:50:50;98881.78;;;-3.21;72.52
77003;BME280;65939;50.060;14.288;2022-12-18T06:52:51;98886.88;;;-3.21;72.71
77003;BME280;65939;50.060;14.288;2022-12-18T06:54:51;98891.22;;;-3.23;72.25
77003;BME280;65939;50.060;14.288;2022-12-18T06:56:52;98887.78;;;-3.22;72.14
77003;BME280;65939;50.060;14.288;2022-12-18T06:58:52;98903.09;;;-3.22;72.46
77003;BME280;65939;50.060;14.288;2022-12-18T07:00:53;98901.44;;;-3.25;72.76
77003;BME280;65939;50.060;14.288;2022-12-18T07:02:53;98897.22;;;-3.27;72.70
77003;BME280;65939;50.060;14.288;2022-12-18T07:04:54;98899.81;;;-3.29;72.93
77003;BME280;65939;50.060;14.288;2022-12-18T07:06:54;98904.03;;;-3.28;72.99
77003;BME280;65939;50.060;14.288;2022-12-18T07:08:55;98900.66;;;-3.28;72.32
77003;BME280;65939;50.060;14.288;2022-12-18T07:10:56;98907.53;;;-3.30;73.04
77003;BME280;65939;50.060;14.288;2022-12-18T07:12:56;98910.06;;;-3.30;73.24
77003;BME280;65939;50.060;14.288;2022-12-18T07:14:57;98911.75;;;-3.31;72.88
77003;BME280;65939;50.060;14.288;2022-12-18T07:16:57;98908.34;;;-3.30;72.88
77003;BME280;65939;50.060;14.288;2022-12-18T07:18:58;98921.13;;;-3.31;72.83
77003;BME280;65939;50.060;14.288;2022-12-18T07:21:03;98916.91;;;-3.32;72.54
77003;BME280;65939;50.060;14.288;2022-12-18T07:23:05;98916.88;;;-3.31;72.54
77003;BME280;65939;50.060;14.288;2022-12-18T07:25:06;98923.69;;;-3.30;72.50
77003;BME280;65939;50.060;14.288;2022-12-18T07:27:06;98927.13;;;-3.32;72.40
77003;BME280;65939;50.060;14.288;2022-12-18T07:29:07;98928.84;;;-3.34;72.51
77003;BME280;65939;50.060;14.288;2022-12-18T07:31:14;98929.78;;;-3.37;72.22
77003;BME280;65939;50.060;14.288;2022-12-18T07:33:15;98922.19;;;-3.42;72.65
77003;BME280;65939;50.060;14.288;2022-12-18T07:35:15;98924.81;;;-3.45;72.64
77003;BME280;65939;50.060;14.288;2022-12-18T07:37:16;98925.69;;;-3.47;73.24
77003;BME280;65939;50.060;14.288;2022-12-18T07:39:16;98932.53;;;-3.48;72.64
77003;BME280;65939;50.060;14.288;2022-12-18T07:41:17;98936.81;;;-3.50;72.85
77003;BME280;65939;50.060;14.288;2022-12-18T07:43:18;98939.34;;;-3.50;73.20
77003;BME280;65939;50.060;14.288;2022-12-18T07:45:19;98942.78;;;-3.51;73.26
77003;BME280;65939;50.060;14.288;2022-12-18T07:47:19;98942.75;;;-3.49;73.13
77003;BME280;65939;50.060;14.288;2022-12-18T07:49:20;98953.88;;;-3.52;72.78
77003;BME280;65939;50.060;14.288;2022-12-18T07:51:20;98953.88;;;-3.53;72.97
77003;BME280;65939;50.060;14.288;2022-12-18T07:53:21;98956.44;;;-3.53;72.89
77003;BME280;65939;50.060;14.288;2022-12-18T07:55:22;98961.53;;;-3.53;73.30
77003;BME280;65939;50.060;14.288;2022-12-18T07:57:22;98952.16;;;-3.53;73.34
77003;BME280;65939;50.060;14.288;2022-12-18T07:59:23;98958.09;;;-3.51;73.39
77003;BME280;65939;50.060;14.288;2022-12-18T08:01:23;98957.22;;;-3.50;73.54
77003;BME280;65939;50.060;14.288;2022-12-18T08:03:24;98958.06;;;-3.48;72.76
77003;BME280;65939;50.060;14.288;2022-12-18T08:05:24;98952.94;;;-3.48;72.60
77003;BME280;65939;50.060;14.288;2022-12-18T08:07:25;98959.78;;;-3.48;72.71
77003;BME280;65939;50.060;14.288;2022-12-18T08:09:26;98953.78;;;-3.49;72.60
77003;BME280;65939;50.060;14.288;2022-12-18T08:11:28;98959.72;;;-3.47;73.14
77003;BME280;65939;50.060;14.288;2022-12-18T08:13:28;98962.22;;;-3.44;72.82
77003;BME280;65939;50.060;14.288;2022-12-18T08:15:29;98961.31;;;-3.40;72.99
77003;BME280;65939;50.060;14.288;2022-12-18T08:17:29;98968.88;;;-3.35;72.66
77003;BME280;65939;50.060;14.288;2022-12-18T08:19:30;98961.25;;;-3.37;72.92
77003;BME280;65939;50.060;14.288;2022-12-18T08:21:31;98961.25;;;-3.38;72.96
77003;BME280;65939;50.060;14.288;2022-12-18T08:23:32;98959.53;;;-3.36;72.31
77003;BME280;65939;50.060;14.288;2022-12-18T08:25:33;98946.78;;;-3.36;72.59
77003;BME280;65939;50.060;14.288;2022-12-18T08:27:34;98951.03;;;-3.37;72.93
77003;BME280;65939;50.060;14.288;2022-12-18T08:29:34;98954.44;;;-3.36;72.71
77003;BME280;65939;50.060;14.288;2022-12-18T08:31:35;98959.47;;;-3.33;72.66
77003;BME280;65939;50.060;14.288;2022-12-18T08:33:37;98953.50;;;-3.32;72.84
77003;BME280;65939;50.060;14.288;2022-12-18T08:35:38;98959.44;;;-3.31;72.09
77003;BME280;65939;50.060;14.288;2022-12-18T08:37:39;98964.59;;;-3.33;72.18
77003;BME280;65939;50.060;14.288;2022-12-18T08:39:39;98962.81;;;-3.31;72.02
77003;BME280;65939;50.060;14.288;2022-12-18T08:41:40;98965.38;;;-3.31;72.02
77003;BME280;65939;50.060;14.288;2022-12-18T08:43:40;98965.44;;;-3.32;72.31
77003;BME280;65939;50.060;14.288;2022-12-18T08:46:00;98963.75;;;-3.33;71.82
77003;BME280;65939;50.060;14.288;2022-12-18T08:48:02;98958.69;;;-3.37;72.01
77003;BME280;65939;50.060;14.288;2022-12-18T08:50:02;98968.09;;;-3.39;71.88
77003;BME280;65939;50.060;14.288;2022-12-18T08:52:04;98966.34;;;-3.37;71.92
77003;BME280;65939;50.060;14.288;2022-12-18T08:54:05;98974.00;;;-3.37;72.31
77003;BME280;65939;50.060;14.288;2022-12-18T08:56:07;98979.13;;;-3.37;72.01
77003;BME280;65939;50.060;14.288;2022-12-18T08:58:07;98974.81;;;-3.33;72.28
77003;BME280;65939;50.060;14.288;2022-12-18T09:00:08;98968.81;;;-3.30;72.36
77003;BME280;65939;50.060;14.288;2022-12-18T09:02:10;98981.47;;;-3.26;72.26
77003;BME280;65939;50.060;14.288;2022-12-18T09:04:11;98974.66;;;-3.25;71.84
77003;BME280;65939;50.060;14.288;2022-12-18T09:06:22;98971.22;;;-3.24;72.33
77003;BME280;65939;50.060;14.288;2022-12-18T09:08:23;98960.06;;;-3.20;72.34
77003;BME280;65939;50.060;14.288;2022-12-18T09:10:23;98959.22;;;-3.19;71.60
77003;BME280;65939;50.060;14.288;2022-12-18T09:12:24;98961.72;;;-3.16;71.74
77003;BME280;65939;50.060;14.288;2022-12-18T09:14:25;98961.66;;;-3.13;72.21
77003;BME280;65939;50.060;14.288;2022-12-18T09:16:27;98961.56;;;-3.08;71.85
77003;BME280;65939;50.060;14.288;2022-12-18T09:18:28;98961.53;;;-3.05;71.83
77003;BME280;65939;50.060;14.288;2022-12-18T09:20:28;98963.94;;;-2.99;71.93
77003;BME280;65939;50.060;14.288;2022-12-18T09:22:30;98964.72;;;-2.96;71.22
77003;BME280;65939;50.060;14.288;2022-12-18T09:24:31;98967.38;;;-3.00;71.68
77003;BME280;65939;50.060;14.288;2022-12-18T09:26:31;98975.13;;;-3.06;71.63
77003;BME280;65939;50.060;14.288;2022-12-18T09:28:32;98968.34;;;-3.06;71.28
77003;BME280;65939;50.060;14.288;2022-12-18T09:30:33;98967.41;;;-3.03;71.17
77003;BME280;65939;50.060;14.288;2022-12-18T09:32:34;98971.69;;;-3.04;71.14
77003;BME280;65939;50.060;14.288;2022-12-18T09:34:34;98973.31;;;-2.98;71.58
77003;BME280;65939;50.060;14.288;2022-12-18T09:36:35;98970.59;;;-2.91;71.89
77003;BME280;65939;50.060;14.288;2022-12-18T09:38:36;98964.53;;;-2.86;71.57
77003;BME280;65939;50.060;14.288;2022-12-18T09:40:42;98971.31;;;-2.85;71.32
77003;BME280;65939;50.060;14.288;2022-12-18T09:42:50;98984.25;;;-2.92;70.86
77003;BME280;65939;50.060;14.288;2022-12-18T09:44:54;98994.53;;;-2.96;70.43
77003;BME280;65939;50.060;14.288;2022-12-18T09:47:18;98994.56;;;-2.98;70.92
77003;BME280;65939;50.060;14.288;2022-12-18T09:49:26;99008.28;;;-3.03;70.72
77003;BME280;65939;50.060;14.288;2022-12-18T09:51:52;99014.22;;;-3.01;70.61
77003;BME280;65939;50.060;14.288;2022-12-18T09:54:05;99024.47;;;-3.03;70.48
77003;BME280;65939;50.060;14.288;2022-12-18T09:56:16;99031.28;;;-3.02;70.36
77003;BME280;65939;50.060;14.288;2022-12-18T09:58:42;99029.56;;;-3.03;70.52
77003;BME280;65939;50.060;14.288;2022-12-18T10:00:45;99024.44;;;-3.01;70.67
77003;BME280;65939;50.060;14.288;2022-12-18T10:02:46;99020.91;;;-2.96;70.89
77003;BME280;65939;50.060;14.288;2022-12-18T10:05:01;99016.47;;;-2.86;71.14
77003;BME280;65939;50.060;14.288;2022-12-18T10:07:16;99014.56;;;-2.75;71.15
77003;BME280;65939;50.060;14.288;2022-12-18T10:09:28;99002.47;;;-2.67;71.04
77003;BME280;65939;50.060;14.288;2022-12-18T10:16:08;98993.72;;;-2.55;70.31
77003;BME280;65939;50.060;14.288;2022-12-18T10:20:45;98986.72;;;-2.47;70.52
77003;BME280;65939;50.060;14.288;2022-12-18T10:27:16;98977.13;;;-2.37;70.07
77003;BME280;65939;50.060;14.288;2022-12-18T10:29:19;98964.28;;;-2.35;69.99
77003;BME280;65939;50.060;14.288;2022-12-18T10:31:22;98960.84;;;-2.33;70.01
77003;BME280;65939;50.060;14.288;2022-12-18T10:33:28;98968.41;;;-2.28;70.13
77003;BME280;65939;50.060;14.288;2022-12-18T10:35:29;98977.78;;;-2.29;69.53
77003;BME280;65939;50.060;14.288;2022-12-18T10:37:30;98977.09;;;-2.35;69.24
77003;BME280;65939;50.060;14.288;2022-12-18T10:39:30;98966.00;;;-2.34;69.54
77003;BME280;65939;50.060;14.288;2022-12-18T10:41:31;98959.16;;;-2.34;69.32
77003;BME280;65939;50.060;14.288;2022-12-18T10:43:33;98952.31;;;-2.33;69.19
77003;BME280;65939;50.060;14.288;2022-12-18T10:45:34;98947.16;;;-2.32;69.36
77003;BME280;65939;50.060;14.288;2022-12-18T10:47:35;98944.59;;;-2.30;69.46
77003;BME280;65939;50.060;14.288;2022-12-18T10:49:46;98937.63;;;-2.24;69.59
77003;BME280;65939;50.060;14.288;2022-12-18T10:51:49;98934.94;;;-2.19;68.90
77003;BME280;65939;50.060;14.288;2022-12-18T10:54:05;98942.63;;;-2.19;68.67
77003;BME280;65939;50.060;14.288;2022-12-18T10:56:07;98942.63;;;-2.19;69.30
77003;BME280;65939;50.060;14.288;2022-12-18T10:58:20;98942.50;;;-2.13;68.84
77003;BME280;65939;50.060;14.288;2022-12-18T11:00:28;98932.97;;;-2.08;68.60
77003;BME280;65939;50.060;14.288;2022-12-18T11:02:37;98932.06;;;-2.05;68.57
77003;BME280;65939;50.060;14.288;2022-12-18T11:04:50;98934.63;;;-2.05;68.21
77003;BME280;65939;50.060;14.288;2022-12-18T11:06:59;98936.38;;;-2.07;68.33
77003;BME280;65939;50.060;14.288;2022-12-18T11:09:05;98922.66;;;-2.05;68.40
77003;BME280;65939;50.060;14.288;2022-12-18T11:11:20;98921.78;;;-2.04;68.04
77003;BME280;65939;50.060;14.288;2022-12-18T11:13:24;98929.53;;;-2.07;67.96
77003;BME280;65939;50.060;14.288;2022-12-18T11:15:29;98926.09;;;-2.06;68.04
77003;BME280;65939;50.060;14.288;2022-12-18T11:17:35;98929.44;;;-2.02;68.19
77003;BME280;65939;50.060;14.288;2022-12-18T11:19:41;98926.03;;;-2.03;68.07